sensor_id;sensor_type;location;lat;lon;timestamp;P1;durP1;ratioP1;P2;durP2;ratioP2
40044;SDS011;25735;48.122;11.422;2022-11-15T00:00:48;10.13;;;4.88;;
40044;SDS011;25735;48.122;11.422;2022-11-15T00:03:15;5.72;;;4.45;;
40044;SDS011;25735;48.122;11.422;2022-11-15T00:05:45;5.97;;;4.90;;
40044;SDS011;25735;48.122;11.422;2022-11-15T00:08:10;6.82;;;4.88;;
40044;SDS011;25735;48.122;11.422;2022-11-15T00:10:36;7.72;;;4.65;;
40044;SDS011;25735;48.122;11.422;2022-11-15T00:13:09;5.28;;;3.78;;
40044;SDS011;25735;48.122;11.422;2022-11-15T00:15:36;2.97;;;2.58;;
40044;SDS011;25735;48.122;11.422;2022-11-15T00:18:05;6.18;;;4.13;;
40044;SDS011;25735;48.122;11.422;2022-11-15T00:20:35;4.18;;;3.28;;
40044;SDS011;25735;48.122;11.422;2022-11-15T00:23:00;7.57;;;3.42;;
40044;SDS011;25735;48.122;11.422;2022-11-15T00:25:28;4.72;;;3.60;;
40044;SDS011;25735;48.122;11.422;2022-11-15T00:27:56;5.05;;;3.47;;
40044;SDS011;25735;48.122;11.422;2022-11-15T00:30:23;4.85;;;3.33;;
40044;SDS011;25735;48.122;11.422;2022-11-15T00:32:49;4.60;;;3.38;;
40044;SDS011;25735;48.122;11.422;2022-11-15T00:35:15;6.20;;;3.60;;
40044;SDS011;25735;48.122;11.422;2022-11-15T00:37:41;4.15;;;3.13;;
40044;SDS011;25735;48.122;11.422;2022-11-15T00:40:07;4.68;;;3.40;;
40044;SDS011;25735;48.122;11.422;2022-11-15T00:42:33;3.70;;;2.92;;
40044;SDS011;25735;48.122;11.422;2022-11-15T00:44:58;3.92;;;2.72;;
40044;SDS011;25735;48.122;11.422;2022-11-15T00:47:23;3.90;;;3.15;;
40044;SDS011;25735;48.122;11.422;2022-11-15T00:49:48;3.67;;;2.97;;
40044;SDS011;25735;48.122;11.422;2022-11-15T00:52:14;3.38;;;2.97;;
40044;SDS011;25735;48.122;11.422;2022-11-15T00:54:39;3.58;;;2.30;;
40044;SDS011;25735;48.122;11.422;2022-11-15T00:57:04;2.95;;;2.17;;
40044;SDS011;25735;48.122;11.422;2022-11-15T00:59:29;3.63;;;2.53;;
40044;SDS011;25735;48.122;11.422;2022-11-15T01:01:55;3.15;;;2.03;;
40044;SDS011;25735;48.122;11.422;2022-11-15T01:04:20;3.35;;;2.60;;
40044;SDS011;25735;48.122;11.422;2022-11-15T01:06:45;4.00;;;2.85;;
40044;SDS011;25735;48.122;11.422;2022-11-15T01:09:11;2.90;;;2.53;;
40044;SDS011;25735;48.122;11.422;2022-11-15T01:11:36;4.20;;;2.65;;
40044;SDS011;25735;48.122;11.422;2022-11-15T01:14:01;2.97;;;2.50;;
40044;SDS011;25735;48.122;11.422;2022-11-15T01:16:27;2.20;;;2.00;;
40044;SDS011;25735;48.122;11.422;2022-11-15T01:18:52;3.05;;;2.40;;
40044;SDS011;25735;48.122;11.422;2022-11-15T01:21:18;2.75;;;2.28;;
40044;SDS011;25735;48.122;11.422;2022-11-15T01:23:44;2.92;;;2.63;;
40044;SDS011;25735;48.122;11.422;2022-11-15T01:26:10;2.10;;;1.80;;
40044;SDS011;25735;48.122;11.422;2022-11-15T01:28:38;3.25;;;1.80;;
40044;SDS011;25735;48.122;11.422;2022-11-15T01:31:06;4.05;;;2.60;;
40044;SDS011;25735;48.122;11.422;2022-11-15T01:33:36;4.68;;;2.65;;
40044;SDS011;25735;48.122;11.422;2022-11-15T01:36:05;3.22;;;2.60;;
40044;SDS011;25735;48.122;11.422;2022-11-15T01:38:36;4.40;;;3.00;;
40044;SDS011;25735;48.122;11.422;2022-11-15T01:41:01;4.10;;;3.42;;
40044;SDS011;25735;48.122;11.422;2022-11-15T01:43:34;5.60;;;3.33;;
40044;SDS011;25735;48.122;11.422;2022-11-15T01:46:06;3.60;;;3.10;;
40044;SDS011;25735;48.122;11.422;2022-11-15T01:48:43;3.38;;;2.30;;
40044;SDS011;25735;48.122;11.422;2022-11-15T01:51:09;3.08;;;2.33;;
40044;SDS011;25735;48.122;11.422;2022-11-15T01:53:39;4.53;;;3.30;;
40044;SDS011;25735;48.122;11.422;2022-11-15T01:56:11;5.72;;;3.22;;
40044;SDS011;25735;48.122;11.422;2022-11-15T01:58:38;3.80;;;2.97;;
40044;SDS011;25735;48.122;11.422;2022-11-15T02:01:06;3.92;;;3.10;;
40044;SDS011;25735;48.122;11.422;2022-11-15T02:03:38;3.85;;;3.20;;
40044;SDS011;25735;48.122;11.422;2022-11-15T02:06:09;3.88;;;2.67;;
40044;SDS011;25735;48.122;11.422;2022-11-15T02:08:35;3.88;;;2.97;;
40044;SDS011;25735;48.122;11.422;2022-11-15T02:11:00;5.15;;;3.10;;
40044;SDS011;25735;48.122;11.422;2022-11-15T02:13:25;4.07;;;3.00;;
40044;SDS011;25735;48.122;11.422;2022-11-15T02:15:59;3.78;;;2.58;;
40044;SDS011;25735;48.122;11.422;2022-11-15T02:18:27;3.83;;;2.60;;
40044;SDS011;25735;48.122;11.422;2022-11-15T02:23:49;4.80;;;2.72;;
40044;SDS011;25735;48.122;11.422;2022-11-15T02:29:51;4.05;;;3.17;;
40044;SDS011;25735;48.122;11.422;2022-11-15T02:32:32;3.63;;;3.10;;
40044;SDS011;25735;48.122;11.422;2022-11-15T02:35:12;3.33;;;2.55;;
40044;SDS011;25735;48.122;11.422;2022-11-15T02:38:10;3.13;;;2.47;;
40044;SDS011;25735;48.122;11.422;2022-11-15T02:43:22;3.28;;;2.25;;
40044;SDS011;25735;48.122;11.422;2022-11-15T02:46:16;3.50;;;2.40;;
40044;SDS011;25735;48.122;11.422;2022-11-15T02:48:48;2.50;;;2.10;;
40044;SDS011;25735;48.122;11.422;2022-11-15T02:51:14;3.88;;;3.17;;
40044;SDS011;25735;48.122;11.422;2022-11-15T02:53:40;3.75;;;2.85;;
40044;SDS011;25735;48.122;11.422;2022-11-15T02:56:07;5.38;;;3.78;;
40044;SDS011;25735;48.122;11.422;2022-11-15T03:09:10;5.97;;;3.15;;
40044;SDS011;25735;48.122;11.422;2022-11-15T03:11:44;4.57;;;3.83;;
40044;SDS011;25735;48.122;11.422;2022-11-15T03:14:21;4.80;;;3.20;;
40044;SDS011;25735;48.122;11.422;2022-11-15T03:19:45;2.53;;;2.20;;
40044;SDS011;25735;48.122;11.422;2022-11-15T03:22:15;3.67;;;2.75;;
40044;SDS011;25735;48.122;11.422;2022-11-15T03:24:42;6.25;;;2.47;;
40044;SDS011;25735;48.122;11.422;2022-11-15T03:27:10;3.63;;;2.72;;
40044;SDS011;25735;48.122;11.422;2022-11-15T03:29:39;4.43;;;2.83;;
40044;SDS011;25735;48.122;11.422;2022-11-15T03:32:12;3.33;;;2.60;;
40044;SDS011;25735;48.122;11.422;2022-11-15T03:35:25;3.97;;;2.72;;
40044;SDS011;25735;48.122;11.422;2022-11-15T03:40:24;4.05;;;3.03;;
40044;SDS011;25735;48.122;11.422;2022-11-15T03:43:00;3.63;;;2.83;;
40044;SDS011;25735;48.122;11.422;2022-11-15T03:48:25;3.60;;;2.50;;
40044;SDS011;25735;48.122;11.422;2022-11-15T03:50:54;3.53;;;2.50;;
40044;SDS011;25735;48.122;11.422;2022-11-15T03:53:20;3.60;;;2.50;;
40044;SDS011;25735;48.122;11.422;2022-11-15T03:55:45;2.92;;;2.28;;
40044;SDS011;25735;48.122;11.422;2022-11-15T03:58:10;3.47;;;2.88;;
40044;SDS011;25735;48.122;11.422;2022-11-15T04:00:36;3.58;;;2.78;;
40044;SDS011;25735;48.122;11.422;2022-11-15T04:03:01;3.42;;;2.58;;
40044;SDS011;25735;48.122;11.422;2022-11-15T04:05:26;4.78;;;3.20;;
40044;SDS011;25735;48.122;11.422;2022-11-15T04:07:52;3.15;;;2.20;;
40044;SDS011;25735;48.122;11.422;2022-11-15T04:10:17;3.60;;;2.17;;
40044;SDS011;25735;48.122;11.422;2022-11-15T04:12:43;2.65;;;2.40;;
40044;SDS011;25735;48.122;11.422;2022-11-15T04:15:13;3.60;;;2.58;;
40044;SDS011;25735;48.122;11.422;2022-11-15T04:17:42;4.43;;;1.83;;
40044;SDS011;25735;48.122;11.422;2022-11-15T04:20:19;3.97;;;3.00;;
40044;SDS011;25735;48.122;11.422;2022-11-15T04:23:05;3.15;;;2.55;;
40044;SDS011;25735;48.122;11.422;2022-11-15T04:25:52;2.38;;;2.17;;
40044;SDS011;25735;48.122;11.422;2022-11-15T04:28:19;3.25;;;2.10;;
40044;SDS011;25735;48.122;11.422;2022-11-15T04:30:45;2.92;;;2.55;;
40044;SDS011;25735;48.122;11.422;2022-11-15T04:33:11;2.30;;;2.10;;
40044;SDS011;25735;48.122;11.422;2022-11-15T04:35:36;3.33;;;2.33;;
40044;SDS011;25735;48.122;11.422;2022-11-15T04:38:02;3.30;;;2.53;;
40044;SDS011;25735;48.122;11.422;2022-11-15T04:40:28;4.38;;;2.55;;
40044;SDS011;25735;48.122;11.422;2022-11-15T04:42:53;4.13;;;2.55;;
40044;SDS011;25735;48.122;11.422;2022-11-15T04:45:19;3.70;;;2.40;;
40044;SDS011;25735;48.122;11.422;2022-11-15T04:47:45;3.22;;;2.60;;
40044;SDS011;25735;48.122;11.422;2022-11-15T04:50:12;3.95;;;2.60;;
40044;SDS011;25735;48.122;11.422;2022-11-15T04:52:39;2.95;;;2.25;;
40044;SDS011;25735;48.122;11.422;2022-11-15T04:55:06;5.05;;;2.65;;
40044;SDS011;25735;48.122;11.422;2022-11-15T04:57:32;2.95;;;2.40;;
40044;SDS011;25735;48.122;11.422;2022-11-15T04:59:57;2.78;;;2.30;;
40044;SDS011;25735;48.122;11.422;2022-11-15T05:02:22;3.38;;;2.70;;
40044;SDS011;25735;48.122;11.422;2022-11-15T05:04:48;4.28;;;2.67;;
40044;SDS011;25735;48.122;11.422;2022-11-15T05:07:13;3.00;;;2.13;;
40044;SDS011;25735;48.122;11.422;2022-11-15T05:09:38;3.20;;;2.47;;
40044;SDS011;25735;48.122;11.422;2022-11-15T05:12:03;3.45;;;2.60;;
40044;SDS011;25735;48.122;11.422;2022-11-15T05:14:29;2.85;;;2.33;;
40044;SDS011;25735;48.122;11.422;2022-11-15T05:16:54;3.47;;;2.50;;
40044;SDS011;25735;48.122;11.422;2022-11-15T05:19:20;3.35;;;2.67;;
40044;SDS011;25735;48.122;11.422;2022-11-15T05:21:45;3.50;;;2.63;;
40044;SDS011;25735;48.122;11.422;2022-11-15T05:24:10;2.92;;;2.45;;
40044;SDS011;25735;48.122;11.422;2022-11-15T05:26:36;3.67;;;2.85;;
40044;SDS011;25735;48.122;11.422;2022-11-15T05:29:01;4.00;;;2.92;;
40044;SDS011;25735;48.122;11.422;2022-11-15T05:31:27;3.85;;;2.45;;
40044;SDS011;25735;48.122;11.422;2022-11-15T05:33:52;4.07;;;2.85;;
40044;SDS011;25735;48.122;11.422;2022-11-15T05:36:31;3.42;;;2.50;;
40044;SDS011;25735;48.122;11.422;2022-11-15T05:39:00;3.42;;;2.15;;
40044;SDS011;25735;48.122;11.422;2022-11-15T05:41:29;4.72;;;3.83;;
40044;SDS011;25735;48.122;11.422;2022-11-15T05:43:57;3.75;;;2.75;;
40044;SDS011;25735;48.122;11.422;2022-11-15T05:46:23;3.97;;;2.50;;
40044;SDS011;25735;48.122;11.422;2022-11-15T05:48:49;3.25;;;2.88;;
40044;SDS011;25735;48.122;11.422;2022-11-15T05:51:16;3.95;;;2.78;;
40044;SDS011;25735;48.122;11.422;2022-11-15T05:53:43;3.33;;;2.80;;
40044;SDS011;25735;48.122;11.422;2022-11-15T05:56:09;4.68;;;3.17;;
40044;SDS011;25735;48.122;11.422;2022-11-15T05:58:35;3.53;;;2.97;;
40044;SDS011;25735;48.122;11.422;2022-11-15T06:01:02;4.97;;;3.10;;
40044;SDS011;25735;48.122;11.422;2022-11-15T06:03:27;3.90;;;2.83;;
40044;SDS011;25735;48.122;11.422;2022-11-15T06:05:53;4.25;;;2.88;;
40044;SDS011;25735;48.122;11.422;2022-11-15T06:08:18;5.22;;;2.78;;
40044;SDS011;25735;48.122;11.422;2022-11-15T06:10:43;3.88;;;3.00;;
40044;SDS011;25735;48.122;11.422;2022-11-15T06:13:09;4.45;;;3.13;;
40044;SDS011;25735;48.122;11.422;2022-11-15T06:15:34;8.63;;;3.65;;
40044;SDS011;25735;48.122;11.422;2022-11-15T06:17:59;10.48;;;3.95;;
40044;SDS011;25735;48.122;11.422;2022-11-15T06:20:26;8.13;;;5.20;;
40044;SDS011;25735;48.122;11.422;2022-11-15T06:22:59;7.53;;;4.70;;
40044;SDS011;25735;48.122;11.422;2022-11-15T06:25:27;7.47;;;4.38;;
40044;SDS011;25735;48.122;11.422;2022-11-15T06:27:53;11.25;;;4.18;;
40044;SDS011;25735;48.122;11.422;2022-11-15T06:30:20;7.07;;;3.92;;
40044;SDS011;25735;48.122;11.422;2022-11-15T06:32:45;6.70;;;4.10;;
40044;SDS011;25735;48.122;11.422;2022-11-15T06:35:11;7.03;;;4.18;;
40044;SDS011;25735;48.122;11.422;2022-11-15T06:37:36;4.93;;;3.78;;
40044;SDS011;25735;48.122;11.422;2022-11-15T06:40:01;6.07;;;4.25;;
40044;SDS011;25735;48.122;11.422;2022-11-15T06:42:27;5.97;;;3.25;;
40044;SDS011;25735;48.122;11.422;2022-11-15T06:44:52;4.35;;;3.50;;
40044;SDS011;25735;48.122;11.422;2022-11-15T06:47:17;7.20;;;4.18;;
40044;SDS011;25735;48.122;11.422;2022-11-15T06:49:43;4.35;;;2.95;;
40044;SDS011;25735;48.122;11.422;2022-11-15T06:52:08;6.55;;;3.60;;
40044;SDS011;25735;48.122;11.422;2022-11-15T06:54:33;4.38;;;3.15;;
40044;SDS011;25735;48.122;11.422;2022-11-15T06:56:58;4.43;;;3.17;;
40044;SDS011;25735;48.122;11.422;2022-11-15T06:59:24;3.33;;;2.50;;
40044;SDS011;25735;48.122;11.422;2022-11-15T07:01:49;3.78;;;3.30;;
40044;SDS011;25735;48.122;11.422;2022-11-15T07:04:14;5.43;;;3.88;;
40044;SDS011;25735;48.122;11.422;2022-11-15T07:06:39;6.47;;;3.95;;
40044;SDS011;25735;48.122;11.422;2022-11-15T07:09:05;6.88;;;3.97;;
40044;SDS011;25735;48.122;11.422;2022-11-15T07:11:30;7.60;;;3.55;;
40044;SDS011;25735;48.122;11.422;2022-11-15T07:13:55;5.03;;;3.70;;
40044;SDS011;25735;48.122;11.422;2022-11-15T07:16:20;4.65;;;3.25;;
40044;SDS011;25735;48.122;11.422;2022-11-15T07:18:46;6.03;;;3.50;;
40044;SDS011;25735;48.122;11.422;2022-11-15T07:21:11;3.55;;;2.92;;
40044;SDS011;25735;48.122;11.422;2022-11-15T07:23:37;5.28;;;2.80;;
40044;SDS011;25735;48.122;11.422;2022-11-15T07:26:03;4.25;;;3.08;;
40044;SDS011;25735;48.122;11.422;2022-11-15T07:28:29;4.82;;;3.60;;
40044;SDS011;25735;48.122;11.422;2022-11-15T07:30:55;4.70;;;3.33;;
40044;SDS011;25735;48.122;11.422;2022-11-15T07:33:20;4.80;;;4.18;;
40044;SDS011;25735;48.122;11.422;2022-11-15T07:35:45;8.48;;;4.35;;
40044;SDS011;25735;48.122;11.422;2022-11-15T07:38:14;7.05;;;4.40;;
40044;SDS011;25735;48.122;11.422;2022-11-15T07:40:40;4.95;;;3.90;;
40044;SDS011;25735;48.122;11.422;2022-11-15T07:43:06;6.72;;;4.13;;
40044;SDS011;25735;48.122;11.422;2022-11-15T07:45:32;6.10;;;3.60;;
40044;SDS011;25735;48.122;11.422;2022-11-15T07:48:00;8.98;;;4.25;;
40044;SDS011;25735;48.122;11.422;2022-11-15T07:50:25;11.00;;;4.05;;
40044;SDS011;25735;48.122;11.422;2022-11-15T07:52:54;7.65;;;4.20;;
40044;SDS011;25735;48.122;11.422;2022-11-15T07:55:24;11.10;;;4.32;;
40044;SDS011;25735;48.122;11.422;2022-11-15T07:57:51;7.50;;;3.50;;
40044;SDS011;25735;48.122;11.422;2022-11-15T08:00:17;7.75;;;4.57;;
40044;SDS011;25735;48.122;11.422;2022-11-15T08:02:43;15.65;;;4.00;;
40044;SDS011;25735;48.122;11.422;2022-11-15T08:05:08;7.35;;;3.70;;
40044;SDS011;25735;48.122;11.422;2022-11-15T08:07:34;6.97;;;4.28;;
40044;SDS011;25735;48.122;11.422;2022-11-15T08:09:59;6.95;;;3.47;;
40044;SDS011;25735;48.122;11.422;2022-11-15T08:12:26;5.85;;;2.92;;
40044;SDS011;25735;48.122;11.422;2022-11-15T08:14:55;5.22;;;3.63;;
40044;SDS011;25735;48.122;11.422;2022-11-15T08:17:21;4.53;;;2.70;;
40044;SDS011;25735;48.122;11.422;2022-11-15T08:19:48;2.88;;;2.28;;
40044;SDS011;25735;48.122;11.422;2022-11-15T08:22:14;4.40;;;2.78;;
40044;SDS011;25735;48.122;11.422;2022-11-15T08:24:39;10.93;;;2.97;;
40044;SDS011;25735;48.122;11.422;2022-11-15T08:27:05;4.25;;;2.53;;
40044;SDS011;25735;48.122;11.422;2022-11-15T08:29:43;5.05;;;3.08;;
40044;SDS011;25735;48.122;11.422;2022-11-15T08:32:09;8.75;;;3.70;;
40044;SDS011;25735;48.122;11.422;2022-11-15T08:34:35;6.25;;;2.80;;
40044;SDS011;25735;48.122;11.422;2022-11-15T08:37:00;5.82;;;2.35;;
40044;SDS011;25735;48.122;11.422;2022-11-15T08:39:25;5.47;;;2.92;;
40044;SDS011;25735;48.122;11.422;2022-11-15T08:41:50;4.95;;;2.70;;
40044;SDS011;25735;48.122;11.422;2022-11-15T08:44:16;4.72;;;2.78;;
40044;SDS011;25735;48.122;11.422;2022-11-15T08:46:41;3.35;;;2.63;;
40044;SDS011;25735;48.122;11.422;2022-11-15T08:49:06;3.28;;;2.30;;
40044;SDS011;25735;48.122;11.422;2022-11-15T08:51:32;3.78;;;2.35;;
40044;SDS011;25735;48.122;11.422;2022-11-15T08:53:57;2.95;;;2.22;;
40044;SDS011;25735;48.122;11.422;2022-11-15T08:56:22;3.65;;;2.13;;
40044;SDS011;25735;48.122;11.422;2022-11-15T08:58:48;2.17;;;1.98;;
40044;SDS011;25735;48.122;11.422;2022-11-15T09:01:18;3.92;;;1.98;;
40044;SDS011;25735;48.122;11.422;2022-11-15T09:03:44;2.87;;;2.07;;
40044;SDS011;25735;48.122;11.422;2022-11-15T09:06:09;2.45;;;2.08;;
40044;SDS011;25735;48.122;11.422;2022-11-15T09:08:35;2.40;;;2.20;;
40044;SDS011;25735;48.122;11.422;2022-11-15T09:11:06;3.10;;;1.90;;
40044;SDS011;25735;48.122;11.422;2022-11-15T09:13:33;2.22;;;1.98;;
40044;SDS011;25735;48.122;11.422;2022-11-15T09:15:59;3.03;;;1.58;;
40044;SDS011;25735;48.122;11.422;2022-11-15T09:18:25;6.88;;;2.63;;
40044;SDS011;25735;48.122;11.422;2022-11-15T09:20:54;7.38;;;4.15;;
40044;SDS011;25735;48.122;11.422;2022-11-15T09:23:21;10.80;;;4.68;;
40044;SDS011;25735;48.122;11.422;2022-11-15T09:25:46;7.15;;;4.25;;
40044;SDS011;25735;48.122;11.422;2022-11-15T09:28:12;6.25;;;4.05;;
40044;SDS011;25735;48.122;11.422;2022-11-15T09:30:37;4.75;;;3.53;;
40044;SDS011;25735;48.122;11.422;2022-11-15T09:33:06;7.25;;;2.72;;
40044;SDS011;25735;48.122;11.422;2022-11-15T09:35:33;5.95;;;2.00;;
40044;SDS011;25735;48.122;11.422;2022-11-15T09:37:58;3.63;;;2.10;;
40044;SDS011;25735;48.122;11.422;2022-11-15T09:40:23;5.93;;;2.00;;
40044;SDS011;25735;48.122;11.422;2022-11-15T09:42:57;9.70;;;2.00;;
40044;SDS011;25735;48.122;11.422;2022-11-15T09:51:18;3.38;;;2.03;;
40044;SDS011;25735;48.122;11.422;2022-11-15T09:56:40;4.50;;;2.57;;
40044;SDS011;25735;48.122;11.422;2022-11-15T09:59:19;3.08;;;2.40;;
40044;SDS011;25735;48.122;11.422;2022-11-15T10:04:18;3.83;;;2.85;;
40044;SDS011;25735;48.122;11.422;2022-11-15T10:06:49;3.67;;;2.60;;
40044;SDS011;25735;48.122;11.422;2022-11-15T10:09:24;4.63;;;3.03;;
40044;SDS011;25735;48.122;11.422;2022-11-15T10:11:55;3.28;;;2.53;;
40044;SDS011;25735;48.122;11.422;2022-11-15T10:14:22;4.35;;;2.88;;
40044;SDS011;25735;48.122;11.422;2022-11-15T10:22:25;5.00;;;2.65;;
40044;SDS011;25735;48.122;11.422;2022-11-15T10:27:34;4.45;;;2.45;;
40044;SDS011;25735;48.122;11.422;2022-11-15T10:29:59;5.40;;;2.55;;
40044;SDS011;25735;48.122;11.422;2022-11-15T10:32:25;3.85;;;2.35;;
40044;SDS011;25735;48.122;11.422;2022-11-15T10:34:50;3.03;;;2.72;;
40044;SDS011;25735;48.122;11.422;2022-11-15T10:37:37;3.53;;;2.10;;
40044;SDS011;25735;48.122;11.422;2022-11-15T10:40:02;2.80;;;2.30;;
40044;SDS011;25735;48.122;11.422;2022-11-15T10:42:39;3.50;;;1.85;;
40044;SDS011;25735;48.122;11.422;2022-11-15T10:45:14;3.13;;;2.05;;
40044;SDS011;25735;48.122;11.422;2022-11-15T10:47:48;2.67;;;2.25;;
40044;SDS011;25735;48.122;11.422;2022-11-15T10:50:31;3.63;;;1.88;;
40044;SDS011;25735;48.122;11.422;2022-11-15T10:52:57;2.40;;;2.17;;
40044;SDS011;25735;48.122;11.422;2022-11-15T10:55:26;1.88;;;1.63;;
40044;SDS011;25735;48.122;11.422;2022-11-15T11:01:07;2.17;;;1.92;;
40044;SDS011;25735;48.122;11.422;2022-11-15T11:03:38;1.42;;;1.33;;
40044;SDS011;25735;48.122;11.422;2022-11-15T11:08:33;2.70;;;1.60;;
40044;SDS011;25735;48.122;11.422;2022-11-15T11:10:59;2.17;;;1.65;;
40044;SDS011;25735;48.122;11.422;2022-11-15T11:13:47;3.67;;;1.60;;
40044;SDS011;25735;48.122;11.422;2022-11-15T11:21:15;2.35;;;1.55;;
40044;SDS011;25735;48.122;11.422;2022-11-15T11:23:54;2.33;;;1.75;;
40044;SDS011;25735;48.122;11.422;2022-11-15T11:29:16;2.00;;;1.42;;
40044;SDS011;25735;48.122;11.422;2022-11-15T11:37:42;2.65;;;1.90;;
40044;SDS011;25735;48.122;11.422;2022-11-15T11:48:45;1.85;;;1.60;;
40044;SDS011;25735;48.122;11.422;2022-11-15T11:51:24;1.73;;;0.90;;
40044;SDS011;25735;48.122;11.422;2022-11-15T11:57:13;1.85;;;1.30;;
40044;SDS011;25735;48.122;11.422;2022-11-15T12:00:20;1.50;;;1.30;;
40044;SDS011;25735;48.122;11.422;2022-11-15T12:10:42;1.13;;;0.93;;
40044;SDS011;25735;48.122;11.422;2022-11-15T12:13:14;1.30;;;1.20;;
40044;SDS011;25735;48.122;11.422;2022-11-15T12:15:50;1.20;;;1.10;;
40044;SDS011;25735;48.122;11.422;2022-11-15T12:18:21;1.50;;;1.40;;
40044;SDS011;25735;48.122;11.422;2022-11-15T12:21:04;1.90;;;0.80;;
40044;SDS011;25735;48.122;11.422;2022-11-15T12:23:42;1.08;;;0.90;;
40044;SDS011;25735;48.122;11.422;2022-11-15T12:26:17;1.20;;;1.08;;
40044;SDS011;25735;48.122;11.422;2022-11-15T12:28:51;1.88;;;0.90;;
40044;SDS011;25735;48.122;11.422;2022-11-15T12:34:00;2.15;;;1.08;;
40044;SDS011;25735;48.122;11.422;2022-11-15T12:39:02;2.15;;;1.02;;
40044;SDS011;25735;48.122;11.422;2022-11-15T12:41:32;2.67;;;1.10;;
40044;SDS011;25735;48.122;11.422;2022-11-15T12:43:59;1.60;;;1.02;;
40044;SDS011;25735;48.122;11.422;2022-11-15T12:56:47;2.03;;;1.17;;
40044;SDS011;25735;48.122;11.422;2022-11-15T13:02:21;1.58;;;1.20;;
40044;SDS011;25735;48.122;11.422;2022-11-15T13:10:47;2.23;;;1.20;;
40044;SDS011;25735;48.122;11.422;2022-11-15T13:13:02;1.08;;;0.98;;
40044;SDS011;25735;48.122;11.422;2022-11-15T13:17:55;1.35;;;0.93;;
40044;SDS011;25735;48.122;11.422;2022-11-15T13:20:28;2.40;;;1.13;;
40044;SDS011;25735;48.122;11.422;2022-11-15T13:23:10;3.13;;;1.20;;
40044;SDS011;25735;48.122;11.422;2022-11-15T13:25:47;1.33;;;1.02;;
40044;SDS011;25735;48.122;11.422;2022-11-15T13:35:42;3.28;;;1.27;;
40044;SDS011;25735;48.122;11.422;2022-11-15T13:38:44;1.10;;;0.95;;
40044;SDS011;25735;48.122;11.422;2022-11-15T13:41:44;3.50;;;1.08;;
40044;SDS011;25735;48.122;11.422;2022-11-15T13:43:59;1.35;;;1.05;;
40044;SDS011;25735;48.122;11.422;2022-11-15T13:46:30;1.92;;;1.15;;
40044;SDS011;25735;48.122;11.422;2022-11-15T13:51:34;1.87;;;1.13;;
40044;SDS011;25735;48.122;11.422;2022-11-15T14:02:21;1.83;;;1.15;;
40044;SDS011;25735;48.122;11.422;2022-11-15T14:04:52;1.42;;;1.23;;
40044;SDS011;25735;48.122;11.422;2022-11-15T14:07:27;1.20;;;1.10;;
40044;SDS011;25735;48.122;11.422;2022-11-15T14:09:53;1.42;;;1.08;;
40044;SDS011;25735;48.122;11.422;2022-11-15T14:12:31;1.40;;;0.90;;
40044;SDS011;25735;48.122;11.422;2022-11-15T14:14:59;2.08;;;0.98;;
40044;SDS011;25735;48.122;11.422;2022-11-15T14:19:54;1.20;;;1.10;;
40044;SDS011;25735;48.122;11.422;2022-11-15T14:22:24;1.08;;;0.98;;
40044;SDS011;25735;48.122;11.422;2022-11-15T14:27:37;1.40;;;1.23;;
40044;SDS011;25735;48.122;11.422;2022-11-15T14:30:03;3.80;;;1.25;;
40044;SDS011;25735;48.122;11.422;2022-11-15T14:32:29;2.60;;;1.30;;
40044;SDS011;25735;48.122;11.422;2022-11-15T14:35:09;1.52;;;1.15;;
40044;SDS011;25735;48.122;11.422;2022-11-15T14:37:39;1.63;;;1.20;;
40044;SDS011;25735;48.122;11.422;2022-11-15T14:40:05;2.28;;;1.48;;
40044;SDS011;25735;48.122;11.422;2022-11-15T14:42:31;1.67;;;1.52;;
40044;SDS011;25735;48.122;11.422;2022-11-15T14:44:57;2.95;;;2.10;;
40044;SDS011;25735;48.122;11.422;2022-11-15T14:47:22;3.97;;;1.85;;
40044;SDS011;25735;48.122;11.422;2022-11-15T14:49:47;3.55;;;2.20;;
40044;SDS011;25735;48.122;11.422;2022-11-15T14:52:19;3.65;;;2.28;;
40044;SDS011;25735;48.122;11.422;2022-11-15T14:54:49;2.83;;;2.00;;
40044;SDS011;25735;48.122;11.422;2022-11-15T14:57:14;4.18;;;2.05;;
40044;SDS011;25735;48.122;11.422;2022-11-15T14:59:39;6.60;;;4.72;;
40044;SDS011;25735;48.122;11.422;2022-11-15T15:02:15;5.63;;;3.78;;
40044;SDS011;25735;48.122;11.422;2022-11-15T15:04:43;3.35;;;3.00;;
40044;SDS011;25735;48.122;11.422;2022-11-15T15:07:08;5.10;;;3.00;;
40044;SDS011;25735;48.122;11.422;2022-11-15T15:09:34;4.85;;;3.17;;
40044;SDS011;25735;48.122;11.422;2022-11-15T15:11:59;6.88;;;3.03;;
40044;SDS011;25735;48.122;11.422;2022-11-15T15:14:24;5.88;;;3.83;;
40044;SDS011;25735;48.122;11.422;2022-11-15T15:16:50;5.00;;;4.28;;
40044;SDS011;25735;48.122;11.422;2022-11-15T15:19:15;8.93;;;5.93;;
40044;SDS011;25735;48.122;11.422;2022-11-15T15:21:40;6.97;;;4.00;;
40044;SDS011;25735;48.122;11.422;2022-11-15T15:24:07;5.80;;;4.55;;
40044;SDS011;25735;48.122;11.422;2022-11-15T15:26:38;7.07;;;5.30;;
40044;SDS011;25735;48.122;11.422;2022-11-15T15:29:04;6.03;;;4.70;;
40044;SDS011;25735;48.122;11.422;2022-11-15T15:31:29;5.43;;;4.15;;
40044;SDS011;25735;48.122;11.422;2022-11-15T15:33:54;8.52;;;3.53;;
40044;SDS011;25735;48.122;11.422;2022-11-15T15:36:19;4.43;;;3.40;;
40044;SDS011;25735;48.122;11.422;2022-11-15T15:38:45;4.15;;;3.38;;
40044;SDS011;25735;48.122;11.422;2022-11-15T15:41:11;4.60;;;2.97;;
40044;SDS011;25735;48.122;11.422;2022-11-15T15:43:38;5.00;;;4.10;;
40044;SDS011;25735;48.122;11.422;2022-11-15T15:46:04;5.88;;;4.47;;
40044;SDS011;25735;48.122;11.422;2022-11-15T15:48:32;5.30;;;4.40;;
40044;SDS011;25735;48.122;11.422;2022-11-15T15:50:58;3.97;;;3.47;;
40044;SDS011;25735;48.122;11.422;2022-11-15T15:53:23;7.38;;;4.28;;
40044;SDS011;25735;48.122;11.422;2022-11-15T15:55:49;6.10;;;4.20;;
40044;SDS011;25735;48.122;11.422;2022-11-15T15:58:14;7.32;;;4.63;;
40044;SDS011;25735;48.122;11.422;2022-11-15T16:00:39;9.77;;;6.55;;
40044;SDS011;25735;48.122;11.422;2022-11-15T16:03:05;11.73;;;8.57;;
40044;SDS011;25735;48.122;11.422;2022-11-15T16:05:30;12.80;;;6.50;;
40044;SDS011;25735;48.122;11.422;2022-11-15T16:07:55;5.90;;;4.68;;
40044;SDS011;25735;48.122;11.422;2022-11-15T16:10:22;7.55;;;5.63;;
40044;SDS011;25735;48.122;11.422;2022-11-15T16:12:56;6.82;;;5.07;;
40044;SDS011;25735;48.122;11.422;2022-11-15T16:15:23;7.68;;;5.13;;
40044;SDS011;25735;48.122;11.422;2022-11-15T16:17:53;5.30;;;4.13;;
40044;SDS011;25735;48.122;11.422;2022-11-15T16:22:56;12.07;;;6.28;;
40044;SDS011;25735;48.122;11.422;2022-11-15T16:25:21;9.13;;;6.07;;
40044;SDS011;25735;48.122;11.422;2022-11-15T16:27:47;13.60;;;9.45;;
40044;SDS011;25735;48.122;11.422;2022-11-15T16:30:17;11.02;;;7.30;;
40044;SDS011;25735;48.122;11.422;2022-11-15T16:32:44;10.05;;;6.68;;
40044;SDS011;25735;48.122;11.422;2022-11-15T16:35:13;8.02;;;5.53;;
40044;SDS011;25735;48.122;11.422;2022-11-15T16:37:39;6.30;;;4.50;;
40044;SDS011;25735;48.122;11.422;2022-11-15T16:40:28;10.20;;;4.18;;
40044;SDS011;25735;48.122;11.422;2022-11-15T16:42:55;6.68;;;4.70;;
40044;SDS011;25735;48.122;11.422;2022-11-15T16:45:22;7.70;;;4.50;;
40044;SDS011;25735;48.122;11.422;2022-11-15T16:47:47;7.82;;;5.72;;
40044;SDS011;25735;48.122;11.422;2022-11-15T16:50:17;7.60;;;4.57;;
40044;SDS011;25735;48.122;11.422;2022-11-15T16:52:48;6.68;;;4.18;;
40044;SDS011;25735;48.122;11.422;2022-11-15T16:55:17;13.60;;;8.00;;
40044;SDS011;25735;48.122;11.422;2022-11-15T16:57:43;8.20;;;5.75;;
40044;SDS011;25735;48.122;11.422;2022-11-15T17:00:12;7.82;;;5.70;;